createdAt,value
2022-10-05T00:02:40.827Z,23.7
2022-10-05T00:07:59.291Z,23.7
2022-10-05T00:13:18.064Z,23.7
2022-10-05T00:18:36.581Z,23.7
2022-10-05T00:23:54.756Z,23.8
2022-10-05T00:29:13.258Z,23.8
2022-10-05T00:34:32.036Z,23.7
2022-10-05T00:39:50.225Z,23.7
2022-10-05T00:45:08.731Z,23.7
2022-10-05T00:50:26.963Z,23.7
2022-10-05T00:55:45.152Z,23.7
2022-10-05T01:01:03.240Z,23.8
2022-10-05T01:06:22.074Z,23.8
2022-10-05T01:11:40.663Z,23.8
2022-10-05T01:16:59.082Z,23.8
2022-10-05T01:22:17.224Z,23.8
2022-10-05T01:27:35.691Z,23.8
2022-10-05T01:32:54.184Z,23.8
2022-10-05T01:38:12.995Z,23.8
2022-10-05T01:43:31.449Z,23.8
2022-10-05T01:48:49.933Z,23.8
2022-10-05T01:54:08.161Z,23.8
2022-10-05T01:59:26.629Z,23.8
2022-10-05T02:05:02.763Z,23.8
2022-10-05T02:10:21.372Z,23.8
2022-10-05T02:15:39.596Z,23.8
2022-10-05T02:20:58.123Z,23.8
2022-10-05T02:26:16.383Z,23.8
2022-10-05T02:31:34.757Z,23.8
2022-10-05T02:36:53.110Z,23.8
2022-10-05T02:42:11.413Z,23.8
2022-10-05T02:47:29.878Z,23.8
2022-10-05T02:52:48.375Z,23.8
2022-10-05T02:58:06.607Z,23.8
2022-10-05T03:03:25.075Z,23.8
2022-10-05T03:08:27.943Z,23.8
2022-10-05T03:13:46.475Z,23.8
2022-10-05T03:19:04.642Z,23.8
2022-10-05T03:24:23.139Z,23.8
2022-10-05T03:29:41.922Z,23.8
2022-10-05T03:35:00.395Z,23.8
2022-10-05T03:40:18.893Z,23.8
2022-10-05T03:45:37.685Z,23.8
2022-10-05T03:50:56.160Z,23.8
2022-10-05T03:56:14.935Z,23.8
2022-10-05T04:01:33.607Z,23.8
2022-10-05T04:06:51.632Z,23.8
2022-10-05T04:12:10.126Z,23.7
2022-10-05T04:17:28.377Z,23.7
2022-10-05T04:22:46.853Z,23.7
2022-10-05T04:28:05.633Z,23.7
2022-10-05T04:33:24.203Z,23.2
2022-10-05T04:38:42.392Z,22.8
2022-10-05T04:44:00.872Z,22.4
2022-10-05T04:49:19.114Z,22.1
2022-10-05T04:54:37.849Z,21.8
2022-10-05T04:59:56.341Z,21.6
2022-10-05T05:05:14.289Z,21.8
2022-10-05T05:10:17.067Z,22.1
2022-10-05T05:15:35.523Z,22.3
2022-10-05T05:20:54.443Z,22.4
2022-10-05T05:26:12.387Z,22.5
2022-10-05T05:31:31.377Z,22.6
2022-10-05T05:36:50.007Z,22.6
2022-10-05T05:42:08.560Z,22.7
2022-10-05T05:47:27.149Z,22.8
2022-10-05T05:52:46.087Z,22.9
2022-10-05T05:58:04.570Z,22.9
2022-10-05T06:03:23.731Z,23
2022-10-05T06:08:42.043Z,23
2022-10-05T06:14:00.235Z,23.1
2022-10-05T06:19:18.438Z,23.1
2022-10-05T06:24:36.678Z,23.2
2022-10-05T06:29:55.407Z,23.2
2022-10-05T06:35:13.904Z,23.3
2022-10-05T06:40:32.425Z,23.3
2022-10-05T06:45:50.971Z,23.3
2022-10-05T06:51:09.875Z,23.4
2022-10-05T06:56:28.100Z,23.4
2022-10-05T07:01:47.205Z,23.4
2022-10-05T07:07:06.126Z,23.5
2022-10-05T07:12:25.015Z,23.5
2022-10-05T07:17:43.235Z,23.5
2022-10-05T07:23:01.720Z,23.5
2022-10-05T07:28:20.526Z,23.6
2022-10-05T07:33:38.689Z,23.6
2022-10-05T07:38:57.445Z,23.6
2022-10-05T07:44:16.165Z,23.7
2022-10-05T07:49:34.434Z,23.7
2022-10-05T07:54:52.925Z,23.7
2022-10-05T08:00:11.736Z,23.8
2022-10-05T08:05:30.192Z,23.8
2022-10-05T08:10:48.391Z,23.8
2022-10-05T08:16:06.885Z,23.8
2022-10-05T08:21:25.282Z,23.9
2022-10-05T08:26:43.500Z,23.9
2022-10-05T08:32:02.322Z,23.9
2022-10-05T08:37:20.759Z,24
2022-10-05T08:42:39.244Z,24
2022-10-05T08:47:57.548Z,24
2022-10-05T08:53:16.001Z,24
2022-10-05T08:58:34.486Z,24
2022-10-05T09:03:37.102Z,24.1
2022-10-05T09:08:55.003Z,24.1
2022-10-05T09:14:13.475Z,24.1
2022-10-05T09:19:32.061Z,24.1
2022-10-05T09:24:50.256Z,24.2
2022-10-05T09:30:09.025Z,24.2
2022-10-05T09:35:27.262Z,24.2
2022-10-05T09:40:45.995Z,24.2
2022-10-05T09:46:04.680Z,24.2
2022-10-05T09:51:23.294Z,24.2
2022-10-05T09:56:41.469Z,24.3
2022-10-05T10:01:59.981Z,24.3
2022-10-05T10:07:18.491Z,24.3
2022-10-05T10:12:36.405Z,24.3
2022-10-05T10:17:54.891Z,24.3
2022-10-05T10:23:13.545Z,24.3
2022-10-05T10:28:32.119Z,24.3
2022-10-05T10:33:50.417Z,24.3
2022-10-05T10:39:09.226Z,24.3
2022-10-05T10:44:27.662Z,24.3
2022-10-05T10:49:46.150Z,24.3
2022-10-05T10:55:04.378Z,24.3
2022-10-05T11:00:22.861Z,24.3
2022-10-05T11:05:46.371Z,24.3
2022-10-05T11:11:06.949Z,24.3
2022-10-05T11:16:25.412Z,24.3
2022-10-05T11:21:43.615Z,24.3
2022-10-05T11:27:01.958Z,24.3
2022-10-05T11:32:20.201Z,24.3
2022-10-05T11:37:38.951Z,24.3
2022-10-05T11:42:57.491Z,24.3
2022-10-05T11:48:16.213Z,24.3
2022-10-05T11:53:34.426Z,24.3
2022-10-05T11:58:52.685Z,24.3
2022-10-05T12:04:11.082Z,24.3
2022-10-05T12:09:29.360Z,24.3
2022-10-05T12:14:47.609Z,24.3
2022-10-05T12:20:05.773Z,24.3
2022-10-05T12:25:24.539Z,24.2
2022-10-05T12:30:43.339Z,24.2
2022-10-05T12:36:01.802Z,24.2
2022-10-05T12:41:20.569Z,24.2
2022-10-05T12:46:38.789Z,24.2
2022-10-05T12:51:56.979Z,24.2
2022-10-05T12:57:15.460Z,24.2
2022-10-05T13:02:33.693Z,24.1
2022-10-05T13:07:52.143Z,24.2
2022-10-05T13:13:10.630Z,24.2
2022-10-05T13:18:29.137Z,24.2
2022-10-05T13:23:47.603Z,24.2
2022-10-05T13:29:05.777Z,24.2
2022-10-05T13:34:24.468Z,24.1
2022-10-05T13:39:42.660Z,24.1
2022-10-05T13:45:01.143Z,24.1
2022-10-05T13:50:19.262Z,24.1
2022-10-05T13:55:37.430Z,24.1
2022-10-05T14:00:56.191Z,24.1
2022-10-05T14:06:14.493Z,24.1
2022-10-05T14:11:33.212Z,24.1
2022-10-05T14:16:51.706Z,24.1
2022-10-05T14:22:10.250Z,24.1
2022-10-05T14:27:28.978Z,24.1
2022-10-05T14:32:47.740Z,24
2022-10-05T14:38:06.787Z,24
2022-10-05T14:43:24.958Z,24
2022-10-05T14:48:43.450Z,24
2022-10-05T14:54:01.684Z,24.1
2022-10-05T14:59:19.867Z,24
2022-10-05T15:04:38.067Z,24
2022-10-05T15:09:56.295Z,24.1
2022-10-05T15:15:14.850Z,24.1
2022-10-05T15:20:33.348Z,24.1
2022-10-05T15:25:51.888Z,24
2022-10-05T15:31:10.234Z,24
2022-10-05T15:36:28.490Z,24
2022-10-05T15:41:46.711Z,24
2022-10-05T15:47:04.898Z,24
2022-10-05T15:52:23.107Z,24
2022-10-05T15:57:41.636Z,24
2022-10-05T16:03:00.091Z,24
2022-10-05T16:08:18.300Z,24
2022-10-05T16:13:36.816Z,24
2022-10-05T16:18:55.016Z,24
2022-10-05T16:24:13.775Z,23.9
2022-10-05T16:29:32.035Z,23.9
2022-10-05T16:34:50.235Z,23.9
2022-10-05T16:40:09.001Z,24
2022-10-05T16:45:27.225Z,23.9
2022-10-05T16:50:45.406Z,23.9
2022-10-05T16:56:03.905Z,23.9
2022-10-05T17:01:22.819Z,23.9
2022-10-05T17:06:41.174Z,23.9
2022-10-05T17:11:59.671Z,23.9
2022-10-05T17:17:18.185Z,23.9
2022-10-05T17:22:36.362Z,23.9
2022-10-05T17:27:55.070Z,23.9
2022-10-05T17:33:13.780Z,23.9
2022-10-05T17:38:32.255Z,23.9
2022-10-05T17:43:51.023Z,23.9
2022-10-05T17:49:09.811Z,23.9
2022-10-05T17:54:27.713Z,23.9
2022-10-05T17:59:46.211Z,23.9
2022-10-05T18:05:04.960Z,23.9
2022-10-05T18:10:23.385Z,23.8
2022-10-05T18:15:41.654Z,23.9
2022-10-05T18:21:00.207Z,23.9
2022-10-05T18:26:18.945Z,23.9
2022-10-05T18:31:37.280Z,23.9
2022-10-05T18:36:56.066Z,23.9
2022-10-05T18:42:14.527Z,23.9
2022-10-05T18:47:33.015Z,23.9
2022-10-05T18:52:51.506Z,23.9
2022-10-05T18:58:09.980Z,23.9
2022-10-05T19:03:28.189Z,23.9
2022-10-05T19:08:46.846Z,23.9
2022-10-05T19:14:05.295Z,23.8
2022-10-05T19:19:33.410Z,23.8
2022-10-05T19:24:52.443Z,23.9
2022-10-05T19:30:10.356Z,23.9
2022-10-05T19:35:29.130Z,23.9
2022-10-05T19:40:47.670Z,23.8
2022-10-05T19:46:06.192Z,23.9
2022-10-05T19:51:25.040Z,23.8
2022-10-05T19:56:43.844Z,23.8
2022-10-05T20:02:02.240Z,23.9
2022-10-05T20:07:20.844Z,23.9
2022-10-05T20:12:39.415Z,23.9
2022-10-05T20:17:58.162Z,23.9
2022-10-05T20:23:16.658Z,23.9
2022-10-05T20:28:35.296Z,23.9
2022-10-05T20:33:54.230Z,23.9
2022-10-05T20:39:12.437Z,23.9
2022-10-05T20:44:30.653Z,23.9
2022-10-05T20:49:33.491Z,23.9
2022-10-05T20:54:52.275Z,23.9
2022-10-05T21:00:10.790Z,23.8
2022-10-05T21:05:29.531Z,23.8
2022-10-05T21:10:48.022Z,23.8
2022-10-05T21:16:06.724Z,23.8
2022-10-05T21:21:24.935Z,23.8
2022-10-05T21:26:43.401Z,23.8
2022-10-05T21:32:02.112Z,23.8
2022-10-05T21:37:20.137Z,23.8
2022-10-05T21:42:38.884Z,23.8
2022-10-05T21:47:57.507Z,23.8
2022-10-05T21:53:15.861Z,23.8
2022-10-05T21:58:34.642Z,23.8
2022-10-05T22:03:53.569Z,23.8
2022-10-05T22:09:12.088Z,23.8
2022-10-05T22:14:30.582Z,23.7
2022-10-05T22:19:49.162Z,23.8
2022-10-05T22:25:07.358Z,23.7
2022-10-05T22:30:25.276Z,23.7
2022-10-05T22:35:43.783Z,23.7
2022-10-05T22:41:01.699Z,23.7
2022-10-05T22:46:20.655Z,23.7
2022-10-05T22:51:39.220Z,23.7
2022-10-05T22:56:57.686Z,23.7
2022-10-05T23:02:16.162Z,23.7
2022-10-05T23:07:34.679Z,23.7
2022-10-05T23:13:00.473Z,23.7
2022-10-05T23:18:19.400Z,23.7
2022-10-05T23:23:37.926Z,23.7
2022-10-05T23:28:56.103Z,23.7
2022-10-05T23:34:14.591Z,23.7
2022-10-05T23:39:33.114Z,23.7
2022-10-05T23:44:51.292Z,23.7
2022-10-05T23:50:09.786Z,23.7
2022-10-05T23:55:28.343Z,23.7
